createdAt,value
2023-05-15T00:00:35.707Z,2.11
2023-05-15T00:01:35.704Z,2.09
2023-05-15T00:02:35.834Z,2.11
2023-05-15T00:03:35.841Z,2.11
2023-05-15T00:04:35.815Z,2.13
2023-05-15T00:05:35.781Z,2.11
2023-05-15T00:06:35.841Z,2.08
2023-05-15T00:07:35.848Z,2.11
2023-05-15T00:08:35.923Z,2.06
2023-05-15T00:09:35.895Z,2.14
2023-05-15T00:10:35.974Z,2.10
2023-05-15T00:11:35.968Z,2.11
2023-05-15T00:12:36.003Z,2.07
2023-05-15T00:13:36.014Z,2.11
2023-05-15T00:14:36.050Z,2.11
2023-05-15T00:15:36.101Z,2.10
2023-05-15T00:16:36.238Z,2.12
2023-05-15T00:17:36.222Z,2.15
2023-05-15T00:18:36.183Z,2.14
2023-05-15T00:19:36.178Z,2.12
2023-05-15T00:20:36.226Z,2.13
2023-05-15T00:21:36.242Z,2.08
2023-05-15T00:22:36.266Z,2.08
2023-05-15T00:23:36.281Z,2.09
2023-05-15T00:24:36.293Z,2.15
2023-05-15T00:25:36.339Z,2.11
2023-05-15T00:26:36.354Z,2.09
2023-05-15T00:27:36.393Z,2.17
2023-05-15T00:28:36.384Z,2.12
2023-05-15T00:29:36.445Z,2.12
2023-05-15T00:30:36.439Z,2.14
2023-05-15T00:31:36.474Z,2.13
2023-05-15T00:32:36.540Z,2.10
2023-05-15T00:33:36.528Z,2.14
2023-05-15T00:34:36.567Z,2.10
2023-05-15T00:35:36.575Z,2.10
2023-05-15T00:36:36.621Z,2.11
2023-05-15T00:37:36.628Z,2.08
2023-05-15T00:38:36.662Z,2.10
2023-05-15T00:39:36.707Z,2.13
2023-05-15T00:40:36.722Z,2.14
2023-05-15T00:41:36.718Z,2.12
2023-05-15T00:42:36.825Z,2.13
2023-05-15T00:43:36.778Z,2.10
2023-05-15T00:44:36.858Z,2.14
2023-05-15T00:45:36.857Z,2.09
2023-05-15T00:46:36.940Z,2.10
2023-05-15T00:47:36.998Z,2.12
2023-05-15T00:48:36.989Z,2.13
2023-05-15T00:49:36.990Z,2.14
2023-05-15T00:50:37.029Z,2.12
2023-05-15T00:51:37.061Z,2.09
2023-05-15T00:52:37.148Z,2.10
2023-05-15T00:53:37.130Z,2.14
2023-05-15T00:54:37.120Z,2.13
2023-05-15T00:55:37.179Z,2.09
2023-05-15T00:56:37.171Z,2.11
2023-05-15T00:57:37.208Z,2.12
2023-05-15T00:58:37.209Z,2.09
2023-05-15T00:59:37.259Z,2.10
2023-05-15T01:00:37.283Z,2.10
2023-05-15T01:01:37.314Z,2.11
2023-05-15T01:02:37.333Z,2.10
2023-05-15T01:03:37.374Z,2.08
2023-05-15T01:04:38.245Z,2.10
2023-05-15T01:05:37.388Z,2.10
2023-05-15T01:06:37.443Z,2.11
2023-05-15T01:07:37.461Z,2.07
2023-05-15T01:08:37.460Z,2.14
2023-05-15T01:09:37.485Z,2.10
2023-05-15T01:10:37.681Z,2.09
2023-05-15T01:11:37.598Z,2.13
2023-05-15T01:12:37.592Z,2.08
2023-05-15T01:13:37.620Z,2.16
2023-05-15T01:14:37.666Z,2.07
2023-05-15T01:15:37.673Z,2.09
2023-05-15T01:16:37.695Z,2.10
2023-05-15T01:17:37.780Z,2.11
2023-05-15T01:18:37.882Z,2.16
2023-05-15T01:19:37.895Z,2.15
2023-05-15T01:20:37.815Z,2.13
2023-05-15T01:21:37.843Z,2.14
2023-05-15T01:22:37.885Z,2.17
2023-05-15T01:23:37.924Z,2.13
2023-05-15T01:24:38.054Z,2.16
2023-05-15T01:25:38.009Z,2.11
2023-05-15T01:26:38.758Z,2.07
2023-05-15T01:27:38.029Z,2.10
2023-05-15T01:28:38.076Z,2.11
2023-05-15T01:29:38.113Z,2.13
2023-05-15T01:30:38.138Z,2.12
2023-05-15T01:31:38.224Z,2.12
2023-05-15T01:32:38.248Z,2.10
2023-05-15T01:33:38.242Z,2.09
2023-05-15T01:34:38.305Z,2.13
2023-05-15T01:35:38.279Z,2.13
2023-05-15T01:36:38.321Z,2.11
2023-05-15T01:37:38.324Z,2.10
2023-05-15T01:38:38.393Z,2.19
2023-05-15T01:39:38.402Z,2.13
2023-05-15T01:40:38.445Z,2.09
2023-05-15T01:41:38.465Z,2.05
2023-05-15T01:42:38.516Z,2.12
2023-05-15T01:43:38.512Z,2.13
2023-05-15T01:44:38.534Z,2.09
2023-05-15T01:45:38.597Z,2.11
2023-05-15T01:46:38.673Z,2.07
2023-05-15T01:47:38.694Z,2.13
2023-05-15T01:48:38.647Z,2.10
2023-05-15T01:49:38.714Z,2.09
2023-05-15T01:50:38.729Z,2.10
2023-05-15T01:51:38.727Z,2.09
2023-05-15T01:52:38.781Z,2.09
2023-05-15T01:53:38.812Z,2.12
2023-05-15T01:54:38.843Z,2.11
2023-05-15T01:55:38.849Z,2.10
2023-05-15T01:56:38.911Z,2.09
2023-05-15T01:57:38.940Z,2.13
2023-05-15T01:58:38.946Z,2.08
2023-05-15T01:59:39.000Z,2.10
2023-05-15T02:00:39.034Z,2.08
2023-05-15T02:01:39.104Z,2.17
2023-05-15T02:02:39.119Z,2.14
2023-05-15T02:03:39.168Z,2.09
2023-05-15T02:04:39.161Z,2.08
2023-05-15T02:05:39.235Z,2.08
2023-05-15T02:06:39.198Z,2.11
2023-05-15T02:07:39.253Z,2.12
2023-05-15T02:08:39.299Z,2.09
2023-05-15T02:09:39.341Z,2.13
2023-05-15T02:10:39.357Z,2.08
2023-05-15T02:11:39.442Z,2.11
2023-05-15T02:12:39.453Z,2.12
2023-05-15T02:13:39.555Z,2.11
2023-05-15T02:14:39.536Z,2.10
2023-05-15T02:15:39.566Z,2.06
2023-05-15T02:16:39.663Z,2.10
2023-05-15T02:17:39.677Z,2.13
2023-05-15T02:18:39.680Z,2.14
2023-05-15T02:19:39.710Z,2.11
2023-05-15T02:20:39.739Z,2.12
2023-05-15T02:21:39.746Z,2.13
2023-05-15T02:22:39.835Z,2.13
2023-05-15T02:23:39.830Z,2.12
2023-05-15T02:24:39.870Z,2.14
2023-05-15T02:25:39.900Z,2.11
2023-05-15T02:26:39.910Z,2.13
2023-05-15T02:27:39.999Z,2.09
2023-05-15T02:28:40.010Z,2.09
2023-05-15T02:29:40.022Z,2.09
2023-05-15T02:30:40.096Z,2.06
2023-05-15T02:31:40.171Z,2.12
2023-05-15T02:32:40.199Z,2.11
2023-05-15T02:33:40.203Z,2.14
2023-05-15T02:34:40.233Z,2.10
2023-05-15T02:35:40.282Z,2.13
2023-05-15T02:36:40.326Z,2.12
2023-05-15T02:37:40.385Z,2.10
2023-05-15T02:38:40.372Z,2.16
2023-05-15T02:39:40.450Z,2.18
2023-05-15T02:40:40.478Z,2.10
2023-05-15T02:41:40.492Z,2.09
2023-05-15T02:42:40.530Z,2.13
2023-05-15T02:43:40.574Z,2.09
2023-05-15T02:44:40.677Z,2.13
2023-05-15T02:45:40.695Z,2.11
2023-05-15T02:46:40.700Z,2.10
2023-05-15T02:47:40.752Z,2.13
2023-05-15T02:48:40.750Z,2.11
2023-05-15T02:49:40.805Z,2.10
2023-05-15T02:50:40.792Z,2.14
2023-05-15T02:51:40.855Z,2.06
2023-05-15T02:52:40.869Z,2.11
2023-05-15T02:53:40.956Z,2.09
2023-05-15T02:54:40.962Z,2.13
2023-05-15T02:55:41.033Z,2.15
2023-05-15T02:56:41.040Z,2.11
2023-05-15T02:57:41.106Z,2.10
2023-05-15T02:58:41.153Z,2.11
2023-05-15T02:59:41.138Z,2.12
2023-05-15T03:00:41.240Z,2.12
2023-05-15T03:01:41.253Z,2.11
2023-05-15T03:02:41.284Z,2.09
2023-05-15T03:03:41.326Z,2.10
2023-05-15T03:04:41.429Z,2.06
2023-05-15T03:05:41.401Z,2.12
2023-05-15T03:06:41.445Z,2.10
2023-05-15T03:07:41.472Z,2.11
2023-05-15T03:08:41.521Z,2.12
2023-05-15T03:09:41.526Z,2.08
2023-05-15T03:10:41.611Z,2.12
2023-05-15T03:11:41.610Z,2.12
2023-05-15T03:12:41.646Z,2.11
2023-05-15T03:13:41.697Z,2.12
2023-05-15T03:14:41.704Z,2.11
2023-05-15T03:15:41.769Z,2.12
2023-05-15T03:16:41.877Z,2.11
2023-05-15T03:17:41.880Z,2.12
2023-05-15T03:18:41.908Z,2.12
2023-05-15T03:19:41.921Z,2.09
2023-05-15T03:20:41.921Z,2.12
2023-05-15T03:21:41.959Z,2.14
2023-05-15T03:22:42.005Z,2.10
2023-05-15T03:23:42.077Z,2.14
2023-05-15T03:24:42.143Z,2.10
2023-05-15T03:25:42.168Z,2.12
2023-05-15T03:26:42.193Z,2.12
2023-05-15T03:27:42.220Z,2.12
2023-05-15T03:28:42.506Z,2.16
2023-05-15T03:29:42.313Z,2.08
2023-05-15T03:30:42.316Z,2.13
2023-05-15T03:31:42.389Z,2.11
2023-05-15T03:32:42.474Z,2.11
2023-05-15T03:33:42.474Z,2.13
2023-05-15T03:34:42.492Z,2.15
2023-05-15T03:35:42.571Z,2.08
2023-05-15T03:36:42.617Z,2.11
2023-05-15T03:37:42.636Z,2.10
2023-05-15T03:38:42.681Z,2.13
2023-05-15T03:39:42.719Z,2.08
2023-05-15T03:40:42.757Z,2.10
2023-05-15T03:41:42.801Z,2.12
2023-05-15T03:42:42.919Z,2.11
2023-05-15T03:43:42.878Z,2.18
2023-05-15T03:44:42.933Z,2.16
2023-05-15T03:45:42.993Z,2.15
2023-05-15T03:46:43.036Z,2.11
2023-05-15T03:47:43.150Z,2.09
2023-05-15T03:48:43.086Z,2.12
2023-05-15T03:49:43.101Z,2.09
2023-05-15T03:50:43.176Z,2.10
2023-05-15T03:51:43.180Z,2.13
2023-05-15T03:52:43.302Z,2.12
2023-05-15T03:53:43.297Z,2.11
2023-05-15T03:54:43.338Z,2.11
2023-05-15T03:55:43.333Z,2.11
2023-05-15T03:56:43.386Z,2.13
2023-05-15T03:57:43.445Z,2.12
2023-05-15T03:58:43.512Z,2.09
2023-05-15T03:59:43.537Z,2.16
2023-05-15T04:00:43.589Z,2.13
2023-05-15T04:01:59.334Z,2.14
2023-05-15T04:02:44.658Z,2.14
2023-05-15T04:03:43.694Z,2.15
2023-05-15T04:04:43.623Z,2.13
2023-05-15T04:05:43.782Z,2.07
2023-05-15T04:06:43.579Z,2.00
2023-05-15T04:07:43.579Z,1.93
2023-05-15T04:08:43.584Z,1.85
2023-05-15T04:09:43.539Z,1.77
2023-05-15T04:10:43.540Z,1.77
2023-05-15T04:11:43.542Z,1.66
2023-05-15T04:12:43.566Z,1.65
2023-05-15T04:13:43.612Z,1.62
2023-05-15T04:14:43.516Z,1.56
2023-05-15T04:15:43.585Z,1.51
2023-05-15T04:16:43.675Z,1.43
2023-05-15T04:17:43.687Z,1.40
2023-05-15T04:18:43.801Z,1.36
2023-05-15T04:19:43.775Z,1.29
2023-05-15T04:20:43.835Z,1.27
2023-05-15T04:21:44.819Z,1.25
2023-05-15T04:22:43.984Z,1.23
2023-05-15T04:23:43.985Z,1.19
2023-05-15T04:24:44.055Z,1.12
2023-05-15T04:25:44.102Z,1.13
2023-05-15T04:26:44.185Z,1.10
2023-05-15T04:27:44.252Z,1.08
2023-05-15T04:28:52.358Z,1.04
2023-05-15T04:29:45.284Z,1.04
2023-05-15T04:30:44.294Z,1.03
2023-05-15T04:31:44.298Z,1.00
2023-05-15T04:32:44.252Z,0.98
2023-05-15T04:33:44.237Z,1.00
2023-05-15T04:34:44.222Z,0.96
2023-05-15T04:35:44.253Z,0.98
2023-05-15T04:36:44.218Z,0.99
2023-05-15T04:37:44.214Z,0.98
2023-05-15T04:38:44.232Z,0.98
2023-05-15T04:39:44.280Z,0.99
2023-05-15T04:40:44.330Z,0.99
2023-05-15T04:41:44.389Z,0.98
2023-05-15T04:42:44.525Z,0.97
2023-05-15T04:43:44.550Z,0.96
2023-05-15T04:44:44.567Z,0.98
2023-05-15T04:45:44.689Z,0.99
2023-05-15T04:46:44.661Z,0.98
2023-05-15T04:47:44.758Z,0.98
2023-05-15T04:48:44.780Z,0.97
2023-05-15T04:49:44.824Z,0.98
2023-05-15T04:50:44.865Z,0.97
2023-05-15T04:51:44.909Z,0.99
2023-05-15T04:52:44.950Z,1.01
2023-05-15T04:53:45.037Z,1.00
2023-05-15T04:54:45.063Z,1.00
2023-05-15T04:55:45.130Z,1.00
2023-05-15T04:56:45.148Z,1.01
2023-05-15T04:57:45.222Z,1.00
2023-05-15T04:58:45.270Z,1.00
2023-05-15T04:59:45.290Z,1.00
2023-05-15T05:00:45.341Z,1.02
2023-05-15T05:01:45.424Z,0.99
2023-05-15T05:02:45.528Z,1.00
2023-05-15T05:03:45.500Z,1.00
2023-05-15T05:04:45.540Z,1.03
2023-05-15T05:05:45.564Z,1.01
2023-05-15T05:06:45.588Z,1.01
2023-05-15T05:07:45.668Z,1.00
2023-05-15T05:08:45.736Z,1.02
2023-05-15T05:09:45.759Z,1.01
2023-05-15T05:10:45.802Z,1.01
2023-05-15T05:11:45.843Z,0.99
2023-05-15T05:12:45.891Z,0.98
2023-05-15T05:13:45.933Z,1.00
2023-05-15T05:14:45.956Z,0.98
2023-05-15T05:15:46.093Z,0.98
2023-05-15T05:16:46.052Z,0.98
2023-05-15T05:17:46.103Z,1.00
2023-05-15T05:18:46.149Z,0.97
2023-05-15T05:19:46.320Z,0.98
2023-05-15T05:20:46.209Z,0.98
2023-05-15T05:21:46.312Z,1.01
2023-05-15T05:22:46.361Z,0.97
2023-05-15T05:23:46.365Z,0.97
2023-05-15T05:24:46.447Z,0.93
2023-05-15T05:25:46.564Z,0.93
2023-05-15T05:26:46.549Z,0.92
2023-05-15T05:27:46.626Z,0.91
2023-05-15T05:28:46.962Z,0.91
2023-05-15T05:29:46.651Z,0.87
2023-05-15T05:30:46.792Z,0.87
2023-05-15T05:31:46.894Z,0.86
2023-05-15T05:32:46.831Z,0.87
2023-05-15T05:33:46.842Z,0.85
2023-05-15T05:34:46.892Z,0.86
2023-05-15T05:35:47.601Z,0.86
2023-05-15T05:36:47.035Z,0.90
2023-05-15T05:37:47.025Z,0.91
2023-05-15T05:38:47.145Z,0.88
2023-05-15T05:39:47.140Z,0.85
2023-05-15T05:40:47.538Z,0.84
2023-05-15T05:41:47.261Z,0.85
2023-05-15T05:42:47.315Z,0.85
2023-05-15T05:43:48.102Z,0.82
2023-05-15T05:44:47.422Z,0.85
2023-05-15T05:45:47.569Z,0.89
2023-05-15T05:46:47.628Z,0.92
2023-05-15T05:47:47.737Z,0.94
2023-05-15T05:48:47.672Z,0.99
2023-05-15T05:49:47.786Z,1.03
2023-05-15T05:50:47.919Z,1.08
2023-05-15T05:51:47.941Z,1.10
2023-05-15T05:52:47.927Z,1.11
2023-05-15T05:53:47.982Z,1.15
2023-05-15T05:54:48.128Z,1.18
2023-05-15T05:55:48.035Z,1.19
2023-05-15T05:56:48.399Z,1.19
2023-05-15T05:57:48.096Z,1.22
2023-05-15T05:58:48.256Z,1.25
2023-05-15T05:59:48.225Z,1.24
2023-05-15T06:00:48.272Z,1.30
2023-05-15T06:01:48.414Z,1.28
2023-05-15T06:02:48.352Z,1.33
2023-05-15T06:03:48.459Z,1.33
2023-05-15T06:04:48.391Z,1.38
2023-05-15T06:05:48.398Z,1.38
2023-05-15T06:06:48.874Z,1.41
2023-05-15T06:07:48.454Z,1.43
2023-05-15T06:08:49.413Z,1.45
2023-05-15T06:09:48.548Z,1.46
2023-05-15T06:10:55.399Z,1.47
2023-05-15T06:11:48.561Z,1.48
2023-05-15T06:12:48.615Z,1.49
2023-05-15T06:13:48.477Z,1.51
2023-05-15T06:14:48.691Z,1.55
2023-05-15T06:15:48.450Z,1.58
2023-05-15T06:16:49.064Z,1.55
2023-05-15T06:17:48.546Z,1.55
2023-05-15T06:18:48.644Z,1.53
2023-05-15T06:19:48.425Z,1.60
2023-05-15T06:20:48.482Z,1.60
2023-05-15T06:21:48.907Z,1.63
2023-05-15T06:22:48.936Z,1.66
2023-05-15T06:23:48.598Z,1.70
2023-05-15T06:24:48.880Z,1.69
2023-05-15T06:25:49.185Z,1.69
2023-05-15T06:26:49.305Z,1.68
2023-05-15T06:27:48.362Z,1.73
2023-05-15T06:28:48.354Z,1.71
2023-05-15T06:29:48.394Z,1.65
2023-05-15T06:30:48.440Z,1.66
2023-05-15T06:31:50.041Z,1.57
2023-05-15T06:32:48.435Z,1.50
2023-05-15T06:33:48.438Z,1.49
2023-05-15T06:34:48.526Z,1.50
2023-05-15T06:35:48.311Z,1.46
2023-05-15T06:36:48.354Z,1.44
2023-05-15T06:37:48.662Z,1.41
2023-05-15T06:38:48.405Z,1.41
2023-05-15T06:39:48.488Z,1.36
2023-05-15T06:40:48.323Z,1.42
2023-05-15T06:41:48.280Z,1.44
2023-05-15T06:42:48.246Z,1.43
2023-05-15T06:43:48.393Z,1.47
2023-05-15T06:44:48.256Z,1.50
2023-05-15T06:45:48.267Z,1.54
2023-05-15T06:46:48.283Z,1.53
2023-05-15T06:47:48.255Z,1.53
2023-05-15T06:48:48.394Z,1.56
2023-05-15T06:49:48.216Z,1.52
2023-05-15T06:50:48.553Z,1.54
2023-05-15T06:51:48.182Z,1.53
2023-05-15T06:52:48.223Z,1.59
2023-05-15T06:53:48.254Z,1.60
2023-05-15T06:54:48.549Z,1.58
2023-05-15T06:55:48.368Z,1.57
2023-05-15T06:56:48.301Z,1.45
2023-05-15T06:57:48.293Z,1.49
2023-05-15T06:58:48.416Z,1.47
2023-05-15T06:59:48.436Z,1.51
2023-05-15T07:00:48.351Z,1.51
2023-05-15T07:01:48.424Z,1.48
2023-05-15T07:02:48.476Z,1.52
2023-05-15T07:03:48.205Z,1.54
2023-05-15T07:04:48.489Z,1.57
2023-05-15T07:05:48.302Z,1.58
2023-05-15T07:06:48.321Z,1.59
2023-05-15T07:07:48.425Z,1.55
2023-05-15T07:08:48.374Z,1.48
2023-05-15T07:09:48.483Z,1.52
2023-05-15T07:10:48.504Z,1.53
2023-05-15T07:11:48.565Z,1.57
2023-05-15T07:12:48.903Z,1.61
2023-05-15T07:13:48.975Z,1.50
2023-05-15T07:14:48.603Z,1.51
2023-05-15T07:15:48.595Z,1.54
2023-05-15T07:16:48.747Z,1.55
2023-05-15T07:17:49.105Z,1.51
2023-05-15T07:18:48.764Z,1.60
2023-05-15T07:19:48.782Z,1.55
2023-05-15T07:20:48.862Z,1.53
2023-05-15T07:21:48.899Z,1.57
2023-05-15T07:22:56.210Z,1.42
2023-05-15T07:23:49.961Z,1.42
2023-05-15T07:24:48.954Z,1.43
2023-05-15T07:25:48.943Z,1.44
2023-05-15T07:26:58.271Z,1.42
2023-05-15T07:27:49.911Z,1.42
2023-05-15T07:28:48.921Z,1.43
2023-05-15T07:29:48.938Z,1.46
2023-05-15T07:30:48.885Z,1.49
2023-05-15T07:31:48.906Z,1.42
2023-05-15T07:32:49.062Z,1.43
2023-05-15T07:33:48.938Z,1.31
2023-05-15T07:34:48.846Z,1.32
2023-05-15T07:35:48.814Z,1.05
2023-05-15T07:36:48.875Z,0.96
2023-05-15T07:37:48.870Z,1.02
2023-05-15T07:38:48.952Z,1.02
2023-05-15T07:39:49.421Z,0.97
2023-05-15T07:40:48.882Z,0.96
2023-05-15T07:41:48.967Z,1.05
2023-05-15T07:42:48.912Z,1.13
2023-05-15T07:43:49.522Z,1.17
2023-05-15T07:44:49.753Z,1.18
2023-05-15T07:45:49.197Z,1.21
2023-05-15T07:46:49.215Z,1.21
2023-05-15T07:47:49.281Z,1.22
2023-05-15T07:48:49.426Z,1.20
2023-05-15T07:49:49.316Z,1.20
2023-05-15T07:50:49.361Z,1.18
2023-05-15T07:51:49.437Z,1.21
2023-05-15T07:52:49.489Z,1.19
2023-05-15T07:53:49.480Z,1.23
2023-05-15T07:54:49.539Z,1.24
2023-05-15T07:55:49.584Z,1.20
2023-05-15T07:56:49.625Z,1.25
2023-05-15T07:57:53.336Z,1.25
2023-05-15T07:58:49.665Z,1.25
2023-05-15T07:59:49.718Z,1.19
2023-05-15T08:00:49.853Z,1.24
2023-05-15T08:01:49.642Z,1.23
2023-05-15T08:02:49.754Z,1.24
2023-05-15T08:03:49.720Z,1.26
2023-05-15T08:04:49.614Z,1.21
2023-05-15T08:05:49.585Z,1.26
2023-05-15T08:06:49.632Z,1.33
2023-05-15T08:07:49.582Z,1.29
2023-05-15T08:08:49.616Z,1.28
2023-05-15T08:09:49.604Z,1.28
2023-05-15T08:10:49.557Z,1.32
2023-05-15T08:11:49.820Z,1.33
2023-05-15T08:12:49.554Z,1.31
2023-05-15T08:13:49.627Z,1.31
2023-05-15T08:14:49.569Z,1.31
2023-05-15T08:15:49.573Z,1.32
2023-05-15T08:16:49.529Z,1.29
2023-05-15T08:17:49.586Z,1.30
2023-05-15T08:18:49.580Z,1.33
2023-05-15T08:19:49.657Z,1.28
2023-05-15T08:20:49.520Z,1.23
2023-05-15T08:21:49.524Z,1.24
2023-05-15T08:22:49.445Z,1.24
2023-05-15T08:23:49.468Z,1.22
2023-05-15T08:24:49.488Z,1.27
2023-05-15T08:25:49.464Z,1.29
2023-05-15T08:26:49.515Z,1.20
2023-05-15T08:27:49.565Z,1.17
2023-05-15T08:28:49.579Z,1.16
2023-05-15T08:29:49.511Z,1.18
2023-05-15T08:30:49.494Z,1.17
2023-05-15T08:31:49.522Z,1.22
2023-05-15T08:32:49.443Z,1.22
2023-05-15T08:33:49.439Z,1.19
2023-05-15T08:34:49.428Z,1.17
2023-05-15T08:35:49.398Z,1.11
2023-05-15T08:36:49.469Z,1.02
2023-05-15T08:37:49.369Z,0.99
2023-05-15T08:38:49.386Z,0.87
2023-05-15T08:39:49.333Z,0.77
2023-05-15T08:40:49.358Z,0.79
2023-05-15T08:41:49.357Z,0.72
2023-05-15T08:42:49.387Z,0.81
2023-05-15T08:43:49.386Z,0.78
2023-05-15T08:44:49.322Z,0.67
2023-05-15T08:45:49.493Z,0.76
2023-05-15T08:46:49.507Z,0.84
2023-05-15T08:47:49.594Z,0.91
2023-05-15T08:48:49.619Z,0.92
2023-05-15T08:49:49.514Z,0.97
2023-05-15T08:50:49.547Z,0.92
2023-05-15T08:51:49.557Z,0.97
2023-05-15T08:52:49.681Z,1.05
2023-05-15T08:53:49.587Z,1.09
2023-05-15T08:54:49.640Z,1.11
2023-05-15T08:55:49.656Z,1.13
2023-05-15T08:56:49.707Z,1.10
2023-05-15T08:57:49.706Z,1.13
2023-05-15T08:58:49.702Z,1.20
2023-05-15T08:59:49.763Z,1.15
2023-05-15T09:00:49.740Z,1.21
2023-05-15T09:01:50.095Z,1.21
2023-05-15T09:02:49.814Z,1.23
2023-05-15T09:03:49.800Z,1.19
2023-05-15T09:04:49.766Z,1.27
2023-05-15T09:05:49.782Z,1.30
2023-05-15T09:06:49.765Z,1.31
2023-05-15T09:07:49.759Z,1.35
2023-05-15T09:08:49.877Z,1.31
2023-05-15T09:09:49.846Z,1.37
2023-05-15T09:10:49.785Z,1.42
2023-05-15T09:11:49.785Z,1.43
2023-05-15T09:12:49.808Z,1.44
2023-05-15T09:13:49.766Z,1.42
2023-05-15T09:14:49.787Z,1.45
2023-05-15T09:15:49.818Z,1.45
2023-05-15T09:16:49.830Z,1.49
2023-05-15T09:17:49.827Z,1.48
2023-05-15T09:18:49.841Z,1.53
2023-05-15T09:19:49.861Z,1.54
2023-05-15T09:20:49.753Z,1.56
2023-05-15T09:21:49.787Z,1.53
2023-05-15T09:22:49.811Z,1.52
2023-05-15T09:23:49.789Z,1.56
2023-05-15T09:24:49.855Z,1.56
2023-05-15T09:25:49.859Z,1.56
2023-05-15T09:26:49.853Z,1.56
2023-05-15T09:27:49.881Z,1.54
2023-05-15T09:28:49.892Z,1.45
2023-05-15T09:29:49.839Z,1.46
2023-05-15T09:30:49.947Z,0.96
2023-05-15T09:31:50.011Z,0.75
2023-05-15T09:32:50.152Z,0.70
2023-05-15T09:33:50.029Z,0.58
2023-05-15T09:34:50.065Z,0.52
2023-05-15T09:35:50.027Z,0.49
2023-05-15T09:36:50.026Z,0.47
2023-05-15T09:37:50.044Z,0.50
2023-05-15T09:38:50.077Z,0.55
2023-05-15T09:39:50.123Z,0.62
2023-05-15T09:40:50.164Z,0.64
2023-05-15T09:41:50.216Z,0.64
2023-05-15T09:42:50.252Z,0.63
2023-05-15T09:43:50.450Z,0.75
2023-05-15T09:44:50.332Z,0.91
2023-05-15T09:45:50.400Z,0.90
2023-05-15T09:46:50.436Z,0.95
2023-05-15T09:47:50.369Z,0.92
2023-05-15T09:48:50.355Z,0.90
2023-05-15T09:49:50.318Z,0.96
2023-05-15T09:50:50.338Z,0.98
2023-05-15T09:51:50.326Z,1.00
2023-05-15T09:52:50.309Z,1.02
2023-05-15T09:53:50.317Z,1.03
2023-05-15T09:54:50.675Z,0.97
2023-05-15T09:55:50.360Z,1.00
2023-05-15T09:56:50.423Z,0.90
2023-05-15T09:57:50.530Z,0.90
2023-05-15T09:58:50.481Z,0.97
2023-05-15T09:59:50.534Z,1.03
2023-05-15T10:00:50.620Z,1.11
2023-05-15T10:01:50.680Z,1.20
2023-05-15T10:02:50.737Z,1.11
2023-05-15T10:03:50.760Z,1.09
2023-05-15T10:04:50.845Z,1.04
2023-05-15T10:05:50.972Z,1.13
2023-05-15T10:06:50.950Z,1.17
2023-05-15T10:07:50.995Z,1.14
2023-05-15T10:08:51.096Z,1.20
2023-05-15T10:09:51.118Z,1.05
2023-05-15T10:10:51.131Z,1.18
2023-05-15T10:11:51.249Z,1.25
2023-05-15T10:12:51.281Z,1.13
2023-05-15T10:13:51.339Z,1.15
2023-05-15T10:14:51.407Z,1.22
2023-05-15T10:15:51.562Z,1.07
2023-05-15T10:16:51.480Z,1.10
2023-05-15T10:17:51.590Z,1.17
2023-05-15T10:18:51.626Z,1.17
2023-05-15T10:20:51.589Z,1.18
2023-05-15T10:21:51.595Z,1.18
2023-05-15T10:22:51.575Z,1.22
2023-05-15T10:23:51.576Z,1.27
2023-05-15T10:24:51.582Z,1.33
2023-05-15T10:25:51.539Z,1.17
2023-05-15T10:26:51.526Z,1.14
2023-05-15T10:27:51.546Z,1.25
2023-05-15T10:28:51.561Z,1.26
2023-05-15T10:29:51.528Z,1.41
2023-05-15T10:30:51.482Z,1.41
2023-05-15T10:31:51.546Z,1.39
2023-05-15T10:32:51.550Z,1.42
2023-05-15T10:33:51.489Z,1.38
2023-05-15T10:34:51.473Z,1.36
2023-05-15T10:35:51.500Z,1.24
2023-05-15T10:36:51.449Z,1.20
2023-05-15T10:37:51.483Z,1.19
2023-05-15T10:38:51.503Z,1.20
2023-05-15T10:39:51.537Z,1.18
2023-05-15T10:40:51.599Z,1.18
2023-05-15T10:41:51.587Z,1.22
2023-05-15T10:42:51.666Z,1.07
2023-05-15T10:43:51.667Z,1.06
2023-05-15T10:44:51.714Z,1.10
2023-05-15T10:45:51.733Z,1.16
2023-05-15T10:46:51.769Z,1.11
2023-05-15T10:47:51.866Z,1.19
2023-05-15T10:48:51.852Z,1.13
2023-05-15T10:49:51.847Z,1.06
2023-05-15T10:50:51.883Z,0.97
2023-05-15T10:51:51.929Z,0.94
2023-05-15T10:52:51.934Z,0.85
2023-05-15T10:53:51.992Z,0.88
2023-05-15T10:54:52.016Z,0.88
2023-05-15T10:55:52.180Z,0.92
2023-05-15T10:56:52.503Z,0.92
2023-05-15T10:57:52.140Z,0.89
2023-05-15T10:58:52.156Z,0.86
2023-05-15T10:59:52.234Z,0.88
2023-05-15T11:00:52.250Z,0.85
2023-05-15T11:01:52.291Z,0.87
2023-05-15T11:02:52.344Z,0.85
2023-05-15T11:03:53.910Z,0.81
2023-05-15T11:04:52.351Z,0.81
2023-05-15T11:05:52.377Z,0.86
2023-05-15T11:06:52.381Z,0.85
2023-05-15T11:07:52.347Z,0.92
2023-05-15T11:08:52.340Z,0.89
2023-05-15T11:09:52.297Z,0.97
2023-05-15T11:10:52.299Z,1.03
2023-05-15T11:11:52.352Z,1.14
2023-05-15T11:12:52.298Z,1.16
2023-05-15T11:13:52.288Z,1.22
2023-05-15T11:14:52.297Z,1.25
2023-05-15T11:15:52.302Z,1.19
2023-05-15T11:16:52.344Z,1.25
2023-05-15T11:17:52.369Z,1.24
2023-05-15T11:18:52.391Z,1.24
2023-05-15T11:19:52.291Z,1.32
2023-05-15T11:20:52.237Z,1.31
2023-05-15T11:21:52.283Z,1.34
2023-05-15T11:22:52.212Z,1.34
2023-05-15T11:23:52.216Z,1.37
2023-05-15T11:24:52.231Z,1.36
2023-05-15T11:25:52.198Z,1.37
2023-05-15T11:26:52.191Z,1.37
2023-05-15T11:27:52.214Z,1.35
2023-05-15T11:28:52.191Z,1.35
2023-05-15T11:29:52.182Z,1.38
2023-05-15T11:30:52.233Z,1.37
2023-05-15T11:31:52.160Z,1.41
2023-05-15T11:32:52.253Z,1.41
2023-05-15T11:33:52.495Z,1.39
2023-05-15T11:34:52.178Z,1.42
2023-05-15T11:35:52.174Z,1.40
2023-05-15T11:36:52.138Z,1.40
2023-05-15T11:37:52.136Z,1.41
2023-05-15T11:38:52.180Z,1.43
2023-05-15T11:39:52.120Z,1.41
2023-05-15T11:40:52.094Z,1.44
2023-05-15T11:41:52.115Z,1.43
2023-05-15T11:42:52.094Z,1.41
2023-05-15T11:43:52.521Z,1.44
2023-05-15T11:44:52.069Z,1.50
2023-05-15T11:45:52.080Z,1.46
2023-05-15T11:46:52.074Z,1.47
2023-05-15T11:47:52.128Z,1.47
2023-05-15T11:48:52.116Z,1.45
2023-05-15T11:49:52.047Z,1.47
2023-05-15T11:50:52.025Z,1.51
2023-05-15T11:51:52.011Z,1.47
2023-05-15T11:52:52.006Z,1.54
2023-05-15T11:53:52.055Z,1.47
2023-05-15T11:54:52.027Z,1.50
2023-05-15T11:55:51.993Z,1.51
2023-05-15T11:56:52.011Z,1.54
2023-05-15T11:57:52.010Z,1.56
2023-05-15T11:58:52.076Z,1.52
2023-05-15T11:59:51.984Z,1.54
2023-05-15T12:00:51.973Z,1.48
2023-05-15T12:01:51.999Z,0.88
2023-05-15T12:02:52.164Z,0.66
2023-05-15T12:03:52.253Z,0.51
2023-05-15T12:04:52.196Z,0.47
2023-05-15T12:05:58.886Z,0.49
2023-05-15T12:06:53.119Z,0.48
2023-05-15T12:07:52.188Z,0.43
2023-05-15T12:08:52.120Z,0.48
2023-05-15T12:09:52.126Z,0.45
2023-05-15T12:10:52.133Z,0.42
2023-05-15T12:11:52.120Z,0.51
2023-05-15T12:12:52.125Z,0.50
2023-05-15T12:13:52.064Z,0.49
2023-05-15T12:14:52.054Z,0.52
2023-05-15T12:15:52.134Z,0.55
2023-05-15T12:16:52.140Z,0.51
2023-05-15T12:17:52.091Z,0.50
2023-05-15T12:18:52.206Z,0.57
2023-05-15T12:19:52.044Z,0.59
2023-05-15T12:20:52.109Z,0.62
2023-05-15T12:21:52.093Z,0.60
2023-05-15T12:22:52.179Z,0.66
2023-05-15T12:24:03.256Z,0.73
2023-05-15T12:24:53.175Z,0.73
2023-05-15T12:25:52.145Z,0.74
2023-05-15T12:26:52.149Z,0.80
2023-05-15T12:27:52.101Z,0.85
2023-05-15T12:28:52.119Z,1.04
2023-05-15T12:29:52.124Z,1.03
2023-05-15T12:30:52.110Z,1.08
2023-05-15T12:31:52.092Z,1.07
2023-05-15T12:32:52.135Z,1.08
2023-05-15T12:33:52.062Z,1.13
2023-05-15T12:34:52.053Z,1.06
2023-05-15T12:35:52.173Z,1.01
2023-05-15T12:36:52.175Z,0.98
2023-05-15T12:37:52.270Z,0.99
2023-05-15T12:38:52.304Z,1.00
2023-05-15T12:39:52.357Z,1.15
2023-05-15T12:40:52.417Z,1.10
2023-05-15T12:41:52.435Z,1.10
2023-05-15T12:42:52.516Z,1.14
2023-05-15T12:43:52.596Z,1.17
2023-05-15T12:44:52.630Z,1.10
2023-05-15T12:45:52.733Z,1.24
2023-05-15T12:46:52.676Z,1.10
2023-05-15T12:47:52.912Z,1.12
2023-05-15T12:48:52.795Z,1.20
2023-05-15T12:49:52.834Z,1.24
2023-05-15T12:50:52.888Z,1.34
2023-05-15T12:51:52.950Z,1.32
2023-05-15T12:52:52.946Z,1.22
2023-05-15T12:53:52.994Z,1.26
2023-05-15T12:54:53.001Z,1.30
2023-05-15T12:55:53.067Z,1.22
2023-05-15T12:56:53.064Z,1.02
2023-05-15T12:57:53.200Z,0.88
2023-05-15T12:58:53.203Z,0.96
2023-05-15T12:59:53.293Z,0.94
2023-05-15T13:00:53.297Z,0.95
2023-05-15T13:01:53.433Z,0.87
2023-05-15T13:02:53.555Z,0.82
2023-05-15T13:03:53.639Z,0.78
2023-05-15T13:04:53.487Z,0.86
2023-05-15T13:05:53.539Z,0.82
2023-05-15T13:06:53.600Z,0.81
2023-05-15T13:07:53.644Z,0.79
2023-05-15T13:08:53.723Z,0.78
2023-05-15T13:09:53.745Z,0.84
2023-05-15T13:10:53.802Z,0.81
2023-05-15T13:11:53.834Z,0.82
2023-05-15T13:12:53.888Z,0.83
2023-05-15T13:13:53.895Z,0.84
2023-05-15T13:14:53.952Z,0.87
2023-05-15T13:15:54.044Z,0.94
2023-05-15T13:16:54.020Z,0.98
2023-05-15T13:17:54.107Z,1.00
2023-05-15T13:18:54.147Z,0.99
2023-05-15T13:19:54.127Z,0.97